Time;durP1;ratioP1;P1;durP2;ratioP2;P2;SDS_P1;SDS_P2;PMS_P1;PMS_P2;Temp;Humidity;BMP_temperature;BMP_pressure;BME280_temperature;BME280_humidity;BME280_pressure;Samples;Min_cycle;Max_cycle;Signal;HPM_P1;HPM_P2
2021/07/19 00:02:21;;;;;;;0.80;0.77;;;;;;;16.84;100.00;82453.28;5036907;28;20478;-75
2021/07/19 00:04:48;;;;;;;0.70;0.70;;;;;;;16.75;100.00;81104.94;5029582;28;20495;-75
2021/07/19 00:07:16;;;;;;;0.80;0.70;;;;;;;16.68;100.00;79760.28;5033590;28;20911;-76
2021/07/19 00:09:44;;;;;;;0.80;0.67;;;;;;;16.65;100.00;78089.16;5029392;28;21040;-75
2021/07/19 00:12:14;;;;;;;0.73;0.67;;;;;;;16.58;100.00;76412.31;5030124;28;21037;-76
2021/07/19 00:14:42;;;;;;;0.70;0.70;;;;;;;16.56;100.00;74410.81;5030963;28;20491;-76
2021/07/19 00:17:10;;;;;;;0.80;0.70;;;;;;;16.54;100.00;72077.81;5046126;28;20495;-76
2021/07/19 00:19:37;;;;;;;0.80;0.70;;;;;;;16.51;100.00;70077.88;5048730;28;20980;-76
2021/07/19 00:22:05;;;;;;;0.70;0.70;;;;;;;16.54;100.00;67754.06;5048415;28;21342;-75
2021/07/19 00:24:32;;;;;;;0.73;0.70;;;;;;;16.50;100.00;65091.47;5030946;28;20861;-75
2021/07/19 00:27:05;;;;;;;0.80;0.70;;;;;;;16.47;100.00;62764.22;5048565;28;20555;-75
2021/07/19 00:29:32;;;;;;;0.70;0.70;;;;;;;16.42;100.00;60769.38;5049537;28;20938;-74
2021/07/19 00:31:59;;;;;;;0.80;0.80;;;;;;;16.42;100.00;58780.09;5048344;28;20460;-76
2021/07/19 00:34:27;;;;;;;0.80;0.80;;;;;;;16.40;100.00;56789.94;5029351;28;20479;-76
2021/07/19 00:36:54;;;;;;;0.70;0.60;;;;;;;16.37;100.00;54469.13;5030497;28;20455;-74
2021/07/19 00:39:25;;;;;;;0.70;0.70;;;;;;;16.35;100.00;51489.59;5030178;28;20454;-75
2021/07/19 00:41:52;;;;;;;0.80;0.70;;;;;;;16.33;100.00;48843.28;5047592;28;20478;-74
2021/07/19 00:44:21;;;;;;;0.80;0.70;;;;;;;16.31;100.00;45869.06;5049848;28;20508;-76
2021/07/19 00:46:48;;;;;;;0.70;0.60;;;;;;;16.33;100.00;43230.25;5047628;28;20506;-74
2021/07/19 00:49:16;;;;;;;0.80;0.70;;;;;;;16.35;100.00;41582.78;5048881;28;20942;-75
2021/07/19 00:51:44;;;;;;;0.70;0.70;;;;;;;16.33;100.00;39274.41;5042087;28;20558;-76
2021/07/19 00:54:17;;;;;;;0.70;0.70;;;;;;;16.32;100.00;37289.28;5032004;28;20539;-75
2021/07/19 00:56:46;;;;;;;0.70;0.70;;;;;;;16.28;100.00;35267.81;5043717;28;20469;-75
2021/07/19 00:59:15;;;;;;;0.70;0.60;;;;;;;16.21;100.00;32711.69;5046801;28;20985;-75
2021/07/19 01:01:48;;;;;;;0.80;0.67;;;;;;;16.16;100.00;29841.28;5048768;28;20475;-73
2021/07/19 01:04:18;;;;;;;0.70;0.60;;;;;;;16.11;100.00;26645.59;5046891;28;20512;-75
2021/07/19 01:06:53;;;;;;;0.70;0.70;;;;;;;16.07;100.00;23315.41;5048316;28;20492;-74
2021/07/19 01:09:25;;;;;;;0.77;0.70;;;;;;;16.15;100.00;19891.16;5040972;28;20564;-75
2021/07/19 01:11:52;;;;;;;0.70;0.70;;;;;;;16.08;100.00;16487.72;5048714;28;21050;-75
2021/07/19 01:14:21;;;;;;;0.80;0.70;;;;;;;16.08;100.00;13356.19;5031940;28;21061;-73
2021/07/19 01:16:49;;;;;;;0.80;0.77;;;;;;;16.05;100.00;10183.28;5034835;28;20463;-76
2021/07/19 01:19:17;;;;;;;0.80;0.70;;;;;;;16.05;100.00;6726.50;5028533;28;20533;-74
2021/07/19 01:22:22;;;;;;;0.70;0.70;;;;;;;16.02;100.00;3013.38;5027643;28;20526;-75
2021/07/19 01:25:01;;;;;;;0.80;0.80;;;;;;;16.03;100.00;-387.38;5027433;28;20986;-76
2021/07/19 01:27:51;;;;;;;0.70;0.70;;;;;;;16.04;100.00;-3342.75;5028374;28;20618;-75
2021/07/19 01:30:20;;;;;;;0.80;0.70;;;;;;;16.04;100.00;-5973.22;5013361;28;20538;-76
2021/07/19 01:32:48;;;;;;;0.70;0.63;;;;;;;16.00;100.00;-8271.59;5010841;28;20462;-75
2021/07/19 01:35:18;;;;;;;0.70;0.70;;;;;;;16.02;100.00;-10092.19;5028183;28;20820;-76
2021/07/19 01:37:47;;;;;;;0.70;0.70;;;;;;;16.07;100.00;-11228.13;5028995;28;20509;-75
2021/07/19 01:40:32;;;;;;;0.70;0.60;;;;;;;15.92;100.00;-12546.22;5012989;28;20478;-76
2021/07/19 01:43:01;;;;;;;0.70;0.70;;;;;;;15.86;100.00;-13464.47;5026902;28;20492;-73
2021/07/19 01:45:31;;;;;;;0.70;0.60;;;;;;;15.80;100.00;-14875.69;5015612;28;20556;-75
2021/07/19 01:48:01;;;;;;;0.70;0.70;;;;;;;15.75;100.00;-16043.44;5049208;28;20940;-75
2021/07/19 01:50:33;;;;;;;0.70;0.70;;;;;;;15.79;100.00;-17412.22;5032028;28;20482;-74
2021/07/19 01:53:30;;;;;;;0.80;0.80;;;;;;;15.77;100.00;-18890.25;5025994;28;20549;-75
2021/07/19 01:56:01;;;;;;;0.77;0.70;;;;;;;15.72;100.00;-19940.13;5032541;28;20469;-75
2021/07/19 01:58:31;;;;;;;0.70;0.70;;;;;;;15.76;100.00;-20698.75;5029439;28;20476;-75
2021/07/19 02:01:16;;;;;;;0.70;0.70;;;;;;;15.74;100.00;-21109.31;5027333;28;20499;-73
2021/07/19 02:04:03;;;;;;;0.70;0.70;;;;;;;15.65;100.00;-21106.97;5012629;28;20933;-75
2021/07/19 02:06:30;;;;;;;0.80;0.70;;;;;;;15.68;100.00;-21107.66;5019366;28;20472;-75
2021/07/19 02:09:10;;;;;;;0.70;0.63;;;;;;;15.66;100.00;-21107.13;5031247;28;21035;-74
2021/07/19 02:11:52;;;;;;;0.80;0.80;;;;;;;15.61;100.00;-21105.88;5032935;28;20555;-75
2021/07/19 02:14:21;;;;;;;0.70;0.60;;;;;;;15.60;100.00;-21105.47;5047089;28;20478;-74
2021/07/19 02:16:59;;;;;;;0.70;0.60;;;;;;;15.61;100.00;-21105.72;5032044;28;20467;-76
2021/07/19 02:19:29;;;;;;;0.80;0.70;;;;;;;15.59;100.00;-21105.19;5046389;28;21024;-74
2021/07/19 02:21:59;;;;;;;0.80;0.77;;;;;;;15.57;100.00;-21104.63;5046050;28;20559;-74
2021/07/19 02:24:50;;;;;;;0.80;0.70;;;;;;;15.50;100.00;-21102.72;5048002;28;20472;-75
2021/07/19 02:27:18;;;;;;;0.70;0.70;;;;;;;15.49;100.00;-21102.56;5038928;28;21031;-75
2021/07/19 02:29:48;;;;;;;0.80;0.70;;;;;;;15.44;100.00;-21101.34;5026647;28;20460;-76
2021/07/19 02:32:17;;;;;;;0.80;0.70;;;;;;;15.48;100.00;-21102.16;5027067;28;20550;-75
2021/07/19 02:34:49;;;;;;;0.77;0.70;;;;;;;15.46;100.00;-21101.88;5044332;28;20463;-75
2021/07/19 02:37:20;;;;;;;0.73;0.70;;;;;;;15.46;100.00;-21101.88;5027272;28;20450;-76
2021/07/19 02:40:06;;;;;;;0.70;0.60;;;;;;;15.44;100.00;-21101.19;5027684;28;20953;-75
2021/07/19 02:42:36;;;;;;;0.70;0.60;;;;;;;15.38;100.00;-21099.69;5041468;28;20463;-75
2021/07/19 02:45:05;;;;;;;0.70;0.70;;;;;;;15.37;100.00;-21099.28;5046393;28;20475;-74
2021/07/19 02:47:44;;;;;;;0.80;0.80;;;;;;;15.37;100.00;-21099.41;5038014;28;20846;-76
2021/07/19 02:50:14;;;;;;;0.70;0.60;;;;;;;15.37;100.00;-21099.41;5015905;28;20526;-75
2021/07/19 02:52:44;;;;;;;0.77;0.70;;;;;;;15.38;100.00;-21099.69;5037250;28;20448;-76
2021/07/19 02:55:17;;;;;;;0.70;0.60;;;;;;;15.33;100.00;-21098.31;5044524;28;20465;-75
2021/07/19 02:57:47;;;;;;;0.70;0.70;;;;;;;15.36;100.00;-21099.13;5030285;28;20456;-76
2021/07/19 03:00:17;;;;;;;0.70;0.70;;;;;;;15.27;100.00;-21096.66;5024393;28;20458;-76
2021/07/19 03:02:56;;;;;;;0.70;0.70;;;;;;;15.22;100.00;-21095.28;5026748;28;20476;-76
2021/07/19 03:05:28;;;;;;;0.70;0.60;;;;;;;15.23;100.00;-21095.69;5042259;28;20466;-76
2021/07/19 03:08:00;;;;;;;0.70;0.60;;;;;;;15.23;100.00;-21095.69;5026255;28;20560;-74
2021/07/19 03:10:51;;;;;;;0.70;0.60;;;;;;;15.17;100.00;-21093.91;5033587;28;20468;-75
2021/07/19 03:13:24;;;;;;;0.70;0.70;;;;;;;15.14;100.00;-21093.09;5045508;28;20464;-75
2021/07/19 03:15:56;;;;;;;0.70;0.60;;;;;;;15.12;100.00;-21092.53;5029214;28;20966;-76
2021/07/19 03:18:25;;;;;;;0.70;0.67;;;;;;;15.06;100.00;-21091.03;5047023;28;20460;-75
2021/07/19 03:20:57;;;;;;;0.70;0.70;;;;;;;15.04;100.00;-21090.34;5045189;28;20547;-75
2021/07/19 03:23:28;;;;;;;0.70;0.63;;;;;;;15.04;100.00;-21090.34;5045566;28;20989;-75
2021/07/19 03:25:59;;;;;;;0.70;0.63;;;;;;;15.08;100.00;-21091.44;5045667;28;20484;-76
2021/07/19 03:28:29;;;;;;;0.80;0.70;;;;;;;15.06;100.00;-21090.88;5047502;28;20449;-77
2021/07/19 03:30:59;;;;;;;0.70;0.60;;;;;;;14.98;100.00;-21088.81;5044834;28;20456;-75
2021/07/19 03:33:29;;;;;;;0.80;0.70;;;;;;;15.00;100.00;-21089.38;5044534;28;20478;-75
2021/07/19 03:35:56;;;;;;;0.70;0.70;;;;;;;15.00;100.00;-21089.25;5045933;28;20468;-76
2021/07/19 03:38:28;;;;;;;0.70;0.70;;;;;;;15.00;100.00;-21089.25;5042800;28;20512;-75
2021/07/19 03:41:13;;;;;;;0.80;0.80;;;;;;;14.94;100.00;-21087.72;5035541;28;20476;-74
2021/07/19 03:43:45;;;;;;;0.70;0.70;;;;;;;14.92;100.00;-21087.31;5025140;28;20503;-75
2021/07/19 03:46:13;;;;;;;0.70;0.70;;;;;;;14.95;100.00;-21088.13;5025881;28;20469;-76
2021/07/19 03:48:43;;;;;;;0.70;0.70;;;;;;;14.97;100.00;-21088.69;5025795;28;20964;-77
2021/07/19 03:51:11;;;;;;;0.73;0.70;;;;;;;15.02;100.00;-21089.78;5026067;28;20554;-75
2021/07/19 03:53:43;;;;;;;0.70;0.67;;;;;;;15.06;100.00;-21091.03;5025536;28;20475;-74
2021/07/19 03:56:11;;;;;;;0.70;0.70;;;;;;;15.11;100.00;-21092.41;5008775;28;20484;-74
2021/07/19 03:58:38;;;;;;;0.70;0.60;;;;;;;15.07;100.00;-21091.16;5027761;28;20887;-75
2021/07/19 04:01:09;;;;;;;0.77;0.70;;;;;;;15.17;100.00;-21093.91;5027391;28;20510;-76
2021/07/19 04:03:47;;;;;;;0.70;0.60;;;;;;;15.20;100.00;-21094.75;5027936;28;20500;-75
2021/07/19 04:06:22;;;;;;;0.70;0.60;;;;;;;15.28;100.00;-21096.94;5028267;28;20976;-76
2021/07/19 04:08:55;;;;;;;0.73;0.70;;;;;;;15.36;100.00;-21099.00;5030180;28;20483;-76
2021/07/19 04:11:27;;;;;;;0.70;0.70;;;;;;;15.34;100.00;-21098.59;5027845;28;20555;-76
2021/07/19 04:14:03;;;;;;;0.70;0.60;;;;;;;15.32;100.00;-21098.03;5010412;28;20555;-75
2021/07/19 04:16:32;;;;;;;0.80;0.70;;;;;;;15.29;100.00;-21097.22;5025716;28;20474;-75
2021/07/19 04:18:59;;;;;;;0.70;0.70;;;;;;;15.31;100.00;-21097.75;5025727;28;20456;-75
2021/07/19 04:21:32;;;;;;;0.70;0.70;;;;;;;15.32;100.00;-21098.03;5024793;28;20459;-75
2021/07/19 04:24:00;;;;;;;0.70;0.70;;;;;;;15.32;100.00;-21097.91;5025934;28;20477;-77
2021/07/19 04:26:37;;;;;;;0.70;0.63;;;;;;;15.53;100.00;-21103.53;5024153;28;20464;-75
2021/07/19 04:29:10;;;;;;;0.70;0.70;;;;;;;15.59;100.00;-21105.19;5025939;28;20467;-75
2021/07/19 04:31:42;;;;;;;0.80;0.70;;;;;;;15.65;100.00;-21106.97;5040895;28;20504;-74
2021/07/19 04:34:12;;;;;;;0.70;0.60;;;;;;;15.70;100.00;-21108.22;5044685;28;20553;-74
2021/07/19 04:36:46;;;;;;;0.70;0.60;;;;;;;15.69;100.00;-21107.94;5030007;28;20857;-75
2021/07/19 04:39:14;;;;;;;0.73;0.70;;;;;;;15.61;100.00;-21105.88;5045180;28;20459;-76
2021/07/19 04:41:41;;;;;;;0.70;0.63;;;;;;;15.59;100.00;-21105.31;5037061;28;20981;-76
2021/07/19 04:44:08;;;;;;;0.70;0.60;;;;;;;15.61;100.00;-21105.72;5046204;28;20468;-76
2021/07/19 04:46:36;;;;;;;0.77;0.70;;;;;;;15.62;100.00;-21106.00;5028182;28;20761;-75
2021/07/19 04:49:03;;;;;;;0.70;0.70;;;;;;;15.68;100.00;-21107.81;5032461;28;20973;-75
2021/07/19 04:51:30;;;;;;;0.70;0.70;;;;;;;15.75;100.00;-21109.44;5048065;28;20548;-76
2021/07/19 04:54:00;;;;;;;0.80;0.80;;;;;;;15.78;100.00;-21110.41;5049048;28;20482;-76
2021/07/19 04:56:29;;;;;;;0.80;0.80;;;;;;;15.86;100.00;-21112.47;5050108;28;20857;-76
2021/07/19 04:58:58;;;;;;;0.70;0.70;;;;;;;15.97;100.00;-21115.38;5048563;28;20464;-77
2021/07/19 05:01:27;;;;;;;0.70;0.60;;;;;;;16.00;100.00;-21116.31;5031422;28;20882;-76
2021/07/19 05:03:57;;;;;;;0.70;0.70;;;;;;;16.03;100.00;-21117.16;5029142;28;20514;-75
2021/07/19 05:06:27;;;;;;;0.70;0.60;;;;;;;16.04;100.00;-21117.28;5030026;28;20556;-75
2021/07/19 05:08:56;;;;;;;0.70;0.67;;;;;;;16.07;100.00;-21118.09;5029388;28;21016;-76
2021/07/19 05:11:25;;;;;;;0.70;0.60;;;;;;;16.14;100.00;-21120.03;5026572;28;20485;-76
2021/07/19 05:13:52;;;;;;;0.70;0.60;;;;;;;16.18;100.00;-21121.13;5034970;28;20483;-76
2021/07/19 05:16:20;;;;;;;0.70;0.70;;;;;;;16.27;100.00;-21123.59;5049954;28;20535;-76
2021/07/19 05:18:49;;;;;;;0.70;0.70;;;;;;;16.32;100.00;-21124.84;5048659;28;20444;-75
2021/07/19 05:21:16;;;;;;;0.70;0.70;;;;;;;16.39;100.00;-21126.91;5047664;28;21460;-75
2021/07/19 05:23:44;;;;;;;0.80;0.70;;;;;;;16.48;100.00;-21129.22;5048120;28;20464;-76
2021/07/19 05:26:13;;;;;;;0.70;0.60;;;;;;;16.53;100.00;-21130.47;5048127;28;20495;-76
2021/07/19 05:28:42;;;;;;;0.70;0.60;;;;;;;16.57;100.00;-21131.56;5040334;28;20475;-76
2021/07/19 05:31:12;;;;;;;0.70;0.60;;;;;;;16.64;100.00;-21133.50;5030903;28;20455;-76
2021/07/19 05:33:39;;;;;;;0.70;0.60;;;;;;;16.72;100.00;-21135.69;5033084;28;20461;-75
2021/07/19 05:36:06;;;;;;;0.70;0.70;;;;;;;16.89;100.00;-21140.22;5028981;28;21023;-75
2021/07/19 05:38:34;;;;;;;0.70;0.70;;;;;;;16.87;100.00;-21139.66;5027119;28;20514;-73
2021/07/19 05:41:01;;;;;;;0.70;0.70;;;;;;;16.99;100.00;-21142.81;5027666;28;20455;-76
2021/07/19 05:43:28;;;;;;;0.70;0.70;;;;;;;17.11;100.00;-21146.13;5040108;28;20464;-76
2021/07/19 05:45:56;;;;;;;0.73;0.70;;;;;;;17.25;100.00;-21149.81;5048631;28;20549;-75
2021/07/19 05:48:23;;;;;;;0.70;0.70;;;;;;;17.50;100.00;-21156.53;5047360;28;20487;-75
2021/07/19 05:50:50;;;;;;;0.80;0.67;;;;;;;17.67;100.00;-21161.19;5033215;28;20464;-76
2021/07/19 05:53:17;;;;;;;0.70;0.70;;;;;;;18.02;100.00;-21170.66;5028628;28;20502;-74
2021/07/19 05:55:44;;;;;;;0.70;0.63;;;;;;;18.21;100.00;-21175.72;5026816;28;20509;-76
2021/07/19 05:58:12;;;;;;;0.70;0.70;;;;;;;18.33;100.00;-21080.63;5028300;28;20464;-74
2021/07/19 06:00:39;;;;;;;0.77;0.70;;;;;;;18.64;100.00;-20530.78;5027456;28;20456;-76
2021/07/19 06:03:08;;;;;;;0.80;0.70;;;;;;;18.72;100.00;-19837.53;5030096;28;20458;-75
2021/07/19 06:05:36;;;;;;;0.70;0.70;;;;;;;18.81;100.00;-18946.03;5030083;28;20546;-75
2021/07/19 06:08:04;;;;;;;0.70;0.60;;;;;;;18.96;100.00;-17941.03;5027704;28;20477;-76
2021/07/19 06:10:31;;;;;;;0.70;0.70;;;;;;;19.17;100.00;-16677.28;5028461;28;20475;-76
2021/07/19 06:12:58;;;;;;;0.70;0.60;;;;;;;19.33;100.00;-15441.69;5046257;28;20457;-74
2021/07/19 06:15:26;;;;;;;0.80;0.70;;;;;;;19.71;100.00;-13913.13;5043095;28;20489;-75
2021/07/19 06:17:54;;;;;;;0.70;0.60;;;;;;;19.67;100.00;-12608.31;5047491;28;20951;-76
2021/07/19 06:20:28;;;;;;;0.97;0.90;;;;;;;19.69;100.00;-11230.00;5047150;28;20517;-76
2021/07/19 06:23:03;;;;;;;0.80;0.80;;;;;;;19.79;100.00;-9479.38;5047504;28;20462;-76
2021/07/19 06:25:33;;;;;;;0.80;0.77;;;;;;;20.00;100.00;-7679.31;5047788;28;21037;-76
2021/07/19 06:28:02;;;;;;;0.70;0.70;;;;;;;20.10;100.00;-6216.56;5048400;28;20983;-75
2021/07/19 06:30:30;;;;;;;0.70;0.60;;;;;;;20.24;100.00;-4451.06;5045922;28;20546;-77
2021/07/19 06:33:19;;;;;;;0.70;0.60;;;;;;;20.15;100.00;-2896.66;5045854;28;20529;-77
2021/07/19 06:35:47;;;;;;;0.70;0.70;;;;;;;20.41;100.00;-1586.00;5045285;28;20456;-73
2021/07/19 06:38:15;;;;;;;1.00;0.90;;;;;;;20.58;100.00;-627.72;5041005;28;21425;-76
2021/07/19 06:40:41;;;;;;;0.70;0.60;;;;;;;20.47;100.00;-858.75;5046178;28;20891;-76
2021/07/19 06:43:09;;;;;;;1.37;0.87;;;;;;;20.54;100.00;-1838.84;5044091;28;20452;-77
2021/07/19 06:45:36;;;;;;;0.80;0.70;;;;;;;20.65;100.00;-4215.75;5046969;28;20418;-76
2021/07/19 06:48:04;;;;;;;0.80;0.70;;;;;;;20.65;100.00;-8735.41;5047907;28;20478;-76
2021/07/19 06:50:31;;;;;;;0.80;0.70;;;;;;;20.80;100.00;-18788.34;5043331;28;20475;-75
2021/07/19 06:52:59;;;;;;;0.80;0.70;;;;;;;20.98;100.00;-21249.97;5046057;28;20471;-78
2021/07/19 06:55:26;;;;;;;0.80;0.70;;;;;;;20.88;100.00;-21247.25;5047094;28;20826;-75
2021/07/19 06:57:53;;;;;;;0.80;0.77;;;;;;;20.89;100.00;-21247.38;5046522;28;20471;-76
2021/07/19 07:00:20;;;;;;;2.00;1.90;;;;;;;20.82;100.00;-21245.59;5047436;28;20570;-77
2021/07/19 07:02:47;;;;;;;0.83;0.83;;;;;;;20.91;100.00;-21248.06;5047794;28;20781;-77
2021/07/19 07:05:15;;;;;;;0.80;0.70;;;;;;;20.82;100.00;-21245.47;5047304;28;20470;-77
2021/07/19 07:07:44;;;;;;;0.80;0.80;;;;;;;20.88;100.00;-21247.09;5045700;28;20480;-77
2021/07/19 07:10:12;;;;;;;0.70;0.70;;;;;;;20.65;100.00;-21241.09;5042520;28;20469;-76
2021/07/19 07:12:42;;;;;;;0.77;0.60;;;;;;;20.79;100.00;-21244.66;5042858;28;20452;-77
2021/07/19 07:15:10;;;;;;;0.80;0.70;;;;;;;20.77;100.00;-21244.09;5027459;28;20484;-77
2021/07/19 07:17:39;;;;;;;0.70;0.60;;;;;;;20.89;100.00;-21247.38;5026777;28;20415;-76
2021/07/19 07:20:07;;;;;;;0.77;0.70;;;;;;;20.92;100.00;-21248.34;5026068;28;20451;-77
2021/07/19 07:22:35;;;;;;;0.80;0.70;;;;;;;21.07;100.00;-21252.28;5047440;28;20429;-76
2021/07/19 07:25:02;;;;;;;0.80;0.70;;;;;;;21.23;100.00;-21256.53;5047457;28;20530;-77
2021/07/19 07:27:31;;;;;;;0.80;0.80;;;;;;;21.46;100.00;-21262.66;5043874;28;20463;-78
2021/07/19 07:29:58;;;;;;;0.77;0.63;;;;;;;21.63;100.00;-21267.28;5045614;28;20456;-75
2021/07/19 07:32:25;;;;;;;0.80;0.73;;;;;;;21.56;100.00;-21265.38;5045708;28;20460;-78
2021/07/19 07:34:52;;;;;;;0.80;0.70;;;;;;;21.49;100.00;-21263.34;5033209;28;20868;-77
2021/07/19 07:37:19;;;;;;;0.73;0.60;;;;;;;21.62;100.00;-21266.88;5028280;28;20475;-76
2021/07/19 07:39:47;;;;;;;0.80;0.70;;;;;;;21.57;100.00;-21265.66;5046804;28;20455;-77
2021/07/19 07:42:14;;;;;;;0.80;0.70;;;;;;;21.01;100.00;-21250.50;5047222;28;20458;-76
2021/07/19 07:44:43;;;;;;;0.80;0.63;;;;;;;20.97;100.00;-21249.56;5046114;28;20422;-76
2021/07/19 07:47:10;;;;;;;0.80;0.70;;;;;;;21.23;100.00;-21256.66;5046491;28;20423;-76
2021/07/19 07:49:38;;;;;;;0.73;0.63;;;;;;;21.02;100.00;-21250.78;5028301;28;20511;-77
2021/07/19 07:52:06;;;;;;;0.70;0.60;;;;;;;21.05;100.00;-21251.59;5029421;28;20529;-78
2021/07/19 07:54:34;;;;;;;0.70;0.70;;;;;;;20.88;100.00;-21247.25;5045751;28;20522;-77
2021/07/19 07:57:05;;;;;;;0.70;0.70;;;;;;;20.84;100.00;-21246.16;5045352;28;20452;-77
2021/07/19 07:59:32;;;;;;;0.80;0.70;;;;;;;20.99;100.00;-21250.09;5046333;28;20415;-76
2021/07/19 08:02:00;;;;;;;0.80;0.80;;;;;;;20.94;100.00;-21248.75;5046174;28;21532;-77
2021/07/19 08:04:29;;;;;;;0.80;0.70;;;;;;;20.69;100.00;-21242.19;5045029;28;20457;-77
2021/07/19 08:06:57;;;;;;;0.80;0.70;;;;;;;21.05;100.00;-21251.75;5035974;28;20450;-78
2021/07/19 08:09:24;;;;;;;0.70;0.60;;;;;;;21.00;100.00;-21250.38;5036595;28;20455;-77
2021/07/19 08:11:51;;;;;;;0.70;0.60;;;;;;;20.84;100.00;-21246.00;5030839;28;20492;-78
2021/07/19 08:14:19;;;;;;;0.77;0.70;;;;;;;20.85;100.00;-21246.44;5034623;28;20953;-78
2021/07/19 08:16:46;;;;;;;0.80;0.70;;;;;;;20.90;100.00;-21247.78;5035795;28;20480;-79
2021/07/19 08:19:15;;;;;;;0.70;0.60;;;;;;;20.98;100.00;-21249.84;5019713;28;20427;-77
2021/07/19 08:21:44;;;;;;;0.80;0.70;;;;;;;20.88;100.00;-21247.09;5027531;28;20482;-77
2021/07/19 08:24:11;;;;;;;0.80;0.70;;;;;;;20.60;100.00;-21239.59;5042021;28;20814;-79
2021/07/19 08:26:38;;;;;;;0.70;0.70;;;;;;;20.46;100.00;-21236.03;5041112;28;20435;-78
2021/07/19 08:29:05;;;;;;;0.80;0.70;;;;;;;20.57;100.00;-21238.78;5038053;28;20479;-76
2021/07/19 08:31:34;;;;;;;0.80;0.70;;;;;;;20.52;100.00;-21237.41;5030971;28;20488;-77
2021/07/19 08:34:04;;;;;;;0.80;0.70;;;;;;;20.55;100.00;-21238.22;5041072;28;20427;-76
2021/07/19 08:36:32;;;;;;;0.80;0.70;;;;;;;20.60;100.00;-21239.72;5039606;28;21001;-79
2021/07/19 08:38:59;;;;;;;0.80;0.70;;;;;;;20.89;100.00;-21247.38;5028969;28;20444;-79
2021/07/19 08:41:26;;;;;;;0.70;0.60;;;;;;;20.98;100.00;-21249.84;5035218;28;20986;-79
2021/07/19 08:43:56;;;;;;;0.80;0.70;;;;;;;21.26;100.00;-21257.19;5038252;28;20784;-76
2021/07/19 08:46:23;;;;;;;0.80;0.70;;;;;;;21.30;100.00;-21258.28;5037932;28;20538;-77
2021/07/19 08:48:52;;;;;;;0.80;0.77;;;;;;;21.32;100.00;-21258.84;5039753;28;20784;-77
2021/07/19 08:51:20;;;;;;;0.70;0.67;;;;;;;21.07;100.00;-21252.28;5038397;28;20463;-78
2021/07/19 08:53:52;;;;;;;0.70;0.60;;;;;;;21.37;100.00;-21260.34;5022309;28;20443;-75
2021/07/19 08:56:19;;;;;;;0.80;0.70;;;;;;;21.63;100.00;-21267.28;5038977;28;20451;-77
2021/07/19 08:58:46;;;;;;;0.70;0.60;;;;;;;21.38;100.00;-21260.47;5037174;28;20956;-76
2021/07/19 09:01:14;;;;;;;0.70;0.60;;;;;;;21.33;100.00;-21259.09;5036803;28;20454;-77
2021/07/19 09:03:41;;;;;;;0.80;0.70;;;;;;;21.20;100.00;-21255.69;5046857;28;20484;-77
2021/07/19 09:06:12;;;;;;;0.80;0.70;;;;;;;21.28;100.00;-21257.75;5048102;28;20834;-77
2021/07/19 09:08:46;;;;;;;2.00;1.43;;;;;;;21.25;100.00;-21256.94;5048794;28;20971;-78
2021/07/19 09:11:16;;;;;;;0.80;0.70;;;;;;;21.38;100.00;-21260.63;5034333;28;20534;-76
2021/07/19 09:13:57;;;;;;;0.77;0.60;;;;;;;21.45;100.00;-21262.38;5027571;28;20471;-78
2021/07/19 09:16:25;;;;;;;0.80;0.77;;;;;;;21.35;100.00;-21259.66;5028684;28;20453;-77
2021/07/19 09:19:03;;;;;;;0.70;0.70;;;;;;;21.00;100.00;-21250.38;5029080;28;20842;-78
2021/07/19 09:21:32;;;;;;;0.80;0.70;;;;;;;21.13;100.00;-21253.94;5029364;28;20506;-76
2021/07/19 09:24:05;;;;;;;0.80;0.67;;;;;;;21.49;100.00;-21263.34;5028726;28;21007;-77
2021/07/19 09:26:37;;;;;;;0.80;0.70;;;;;;;21.69;100.00;-21268.78;5028152;28;20538;-76
2021/07/19 09:29:06;;;;;;;0.80;0.70;;;;;;;21.49;100.00;-21263.47;5028042;28;20507;-76
2021/07/19 09:31:37;;;;;;;0.80;0.70;;;;;;;21.36;100.00;-21260.06;5028176;28;20936;-77
2021/07/19 09:34:12;;;;;;;0.70;0.60;;;;;;;21.60;100.00;-21266.47;5028353;28;20457;-77
2021/07/19 09:36:52;;;;;;;0.80;0.70;;;;;;;21.43;100.00;-21261.84;5044405;28;20894;-76
2021/07/19 09:39:20;;;;;;;0.70;0.70;;;;;;;21.54;100.00;-21264.69;5047701;28;20510;-76
2021/07/19 09:41:48;;;;;;;0.80;0.70;;;;;;;21.47;100.00;-21262.94;5047131;28;20501;-76
2021/07/19 09:44:15;;;;;;;0.73;0.60;;;;;;;21.85;100.00;-21273.03;5048190;28;20558;-75
2021/07/19 09:46:42;;;;;;;0.80;0.70;;;;;;;22.09;100.00;-21279.41;5049211;28;20832;-76
2021/07/19 09:49:11;;;;;;;0.73;0.67;;;;;;;22.27;100.00;-21284.19;5015279;28;21434;-76
2021/07/19 09:51:38;;;;;;;0.80;0.70;;;;;;;22.33;100.00;-21285.97;5028464;28;20949;-77
2021/07/19 09:54:33;;;;;;;0.80;0.70;;;;;;;22.15;100.00;-21281.19;5027623;28;20456;-77
2021/07/19 09:57:02;;;;;;;0.80;0.80;;;;;;;22.12;100.00;-21280.38;5027214;28;20506;-76
2021/07/19 09:59:33;;;;;;;0.70;0.60;;;;;;;22.01;100.00;-21277.25;5026799;28;20817;-77
2021/07/19 10:02:01;;;;;;;0.70;0.60;;;;;;;21.73;100.00;-21269.88;5028157;28;20468;-76
2021/07/19 10:04:29;;;;;;;0.80;0.70;;;;;;;21.73;100.00;-21269.75;5027963;28;20809;-77
2021/07/19 10:06:58;;;;;;;0.80;0.70;;;;;;;21.65;100.00;-21267.84;5029909;28;20514;-76
2021/07/19 10:09:27;;;;;;;0.80;0.70;;;;;;;21.74;100.00;-21270.03;5028358;28;20540;-76
2021/07/19 10:11:56;;;;;;;0.70;0.60;;;;;;;21.83;100.00;-21272.59;5009456;28;20467;-75
2021/07/19 10:14:29;;;;;;;0.80;0.80;;;;;;;22.11;100.00;-21279.97;5026534;28;20752;-75
2021/07/19 10:16:58;;;;;;;0.70;0.60;;;;;;;22.37;100.00;-21286.91;5038792;28;20439;-77
2021/07/19 10:19:27;;;;;;;0.80;0.70;;;;;;;22.94;100.00;-21302.03;5047512;28;20470;-76
2021/07/19 10:21:54;;;;;;;0.80;0.80;;;;;;;23.28;100.00;-21311.28;5030932;28;20848;-77
2021/07/19 10:24:22;;;;;;;1.43;1.33;;;;;;;23.41;100.00;-21314.66;5047244;28;20858;-76
2021/07/19 10:26:50;;;;;;;0.80;0.80;;;;;;;23.66;100.00;-21321.19;5040337;28;20472;-76
2021/07/19 10:29:18;;;;;;;0.80;0.70;;;;;;;23.37;100.00;-21313.59;5041539;28;20566;-74
2021/07/19 10:31:47;;;;;;;0.70;0.60;;;;;;;23.90;100.00;-21327.72;5034433;28;20567;-76
2021/07/19 10:34:19;;;;;;;0.70;0.60;;;;;;;23.68;100.00;-21321.75;5040382;28;20456;-76
2021/07/19 10:36:51;;;;;;;0.70;0.60;;;;;;;23.83;100.00;-21325.97;5043628;28;20475;-76
2021/07/19 10:39:22;;;;;;;1.03;0.77;;;;;;;23.26;100.00;-21310.59;5046193;28;20454;-76
2021/07/19 10:42:04;;;;;;;0.80;0.60;;;;;;;23.44;100.00;-21315.50;5044720;28;20480;-74
2021/07/19 10:44:34;;;;;;;0.80;0.70;;;;;;;23.50;100.00;-21317.00;5042168;28;20870;-76
2021/07/19 10:47:14;;;;;;;0.70;0.60;;;;;;;23.54;100.00;-21318.22;5046015;28;20464;-75
2021/07/19 10:49:55;;;;;;;0.80;0.60;;;;;;;23.75;100.00;-21323.78;5046195;28;20467;-77
2021/07/19 10:52:30;;;;;;;0.70;0.60;;;;;;;23.42;100.00;-21314.81;5047297;28;20444;-76
2021/07/19 10:54:59;;;;;;;0.80;0.70;;;;;;;23.34;100.00;-21312.78;5045513;28;20962;-77
2021/07/19 10:57:46;;;;;;;0.70;0.60;;;;;;;23.37;100.00;-21313.59;5047176;28;20448;-74
2021/07/19 11:00:15;;;;;;;0.70;0.60;;;;;;;23.36;100.00;-21313.31;5011214;28;20456;-76
2021/07/19 11:02:45;;;;;;;0.70;0.50;;;;;;;23.09;100.00;-21306.25;5045042;28;20444;-77
2021/07/19 11:05:18;;;;;;;0.70;0.60;;;;;;;23.42;100.00;-21314.94;5036580;28;20521;-76
2021/07/19 11:07:45;;;;;;;0.80;0.70;;;;;;;23.66;100.00;-21321.34;5037172;28;20831;-75
2021/07/19 11:10:17;;;;;;;0.80;0.70;;;;;;;23.83;100.00;-21325.81;5043078;28;20828;-77
2021/07/19 11:12:49;;;;;;;1.10;0.80;;;;;;;23.85;100.00;-21326.50;5034497;28;20451;-76
2021/07/19 11:15:19;;;;;;;0.70;0.60;;;;;;;23.32;100.00;-21312.22;5040143;28;20468;-76
2021/07/19 11:17:48;;;;;;;0.90;0.90;;;;;;;23.91;100.00;-21328.00;5040564;28;20477;-76
2021/07/19 11:20:16;;;;;;;0.70;0.60;;;;;;;23.96;100.00;-21329.22;5024854;28;20480;-76
2021/07/19 11:22:44;;;;;;;0.70;0.60;;;;;;;24.11;100.00;-21333.44;5031463;28;20455;-75
2021/07/19 11:25:14;;;;;;;0.80;0.60;;;;;;;24.14;100.00;-21333.97;5017826;28;20467;-76
2021/07/19 11:27:45;;;;;;;0.80;0.60;;;;;;;24.49;100.00;-21343.47;5033261;28;20945;-75
2021/07/19 11:30:17;;;;;;;0.80;0.60;;;;;;;25.44;100.00;-21368.56;5039700;28;20494;-75
2021/07/19 11:32:44;;;;;;;0.70;0.60;;;;;;;26.52;100.00;-21397.16;5032434;28;20458;-77
2021/07/19 11:35:15;;;;;;;0.70;0.50;;;;;;;26.74;100.00;-21403.13;5040440;28;20802;-75